Flight Track Log - Related Links

Times and Time Zones

All times are in EDT time to prevent confusion due to time zone crossing. See the EJA914 flight status page for this flight to view local times or setup timezone preferences in your user account.

Time Position Orientation Groundspeed Altitude Reporting Facility
EDT Latitude Longitude Course Direction KTS MPH feet Rate Location/Type
Sun 06:43:29 PM 42.1228 -86.3156 81° East 269 310 3,900  Level Chicago Center
Sun 06:44:31 PM 42.1325 -86.2317 81° East 229 264 9,700 3,581 Climbing Chicago Center
Sun 06:45:33 PM 42.1478 -86.1064 81° East 330 380 11,300 3,290 Climbing Chicago Center
Sun 06:46:35 PM 42.1631 -85.9722 81° East 362 417 16,500 2,758 Climbing Chicago Center
Sun 06:47:37 PM 42.1819 -85.8075 81° East 415 478 17,000 2,256 Climbing Chicago Center
Sun 06:48:40 PM 42.1994 -85.6503 81° East 430 495 21,200 3,629 Climbing Chicago Center
Sun 06:49:41 PM 42.2136 -85.5153 82° East 375 432 24,500 2,081 Climbing Chicago Center
Sun 06:50:44 PM 42.2292 -85.3642 82° East 403 464 25,500 960 Climbing Chicago Center
Sun 06:51:46 PM 42.2478 -85.1922 82° East 448 516 26,500 1,032 Climbing Chicago Center
Sun 06:53:50 PM 42.2917 -84.7881 82° East 500 575 28,700 1,355 Climbing Chicago Center
Sun 06:54:52 PM 42.3114 -84.6003 82° East 507 583 30,700 1,984 Climbing Chicago Center
Sun 06:55:54 PM 42.3303 -84.4169 82° East 498 573 32,800 1,597 Climbing Chicago Center
Sun 06:56:56 PM 42.3481 -84.2297 83° East 504 580 34,000 1,258 Climbing Chicago Center
Sun 06:57:58 PM 42.3714 -83.9956 82° East 524 603 35,400 1,258 Climbing Chicago Center
Sun 06:59:00 PM 42.3906 -83.7942 83° East 539 620 36,600 1,190 Climbing Chicago Center
Sun 07:00:04 PM 42.4089 -83.5697 84° East 532 612 37,900 1,161 Climbing Cleveland Center
Sun 07:01:04 PM 42.4322 -83.3881 80° East 552 635 39,000 1,033 Climbing Cleveland Center
Sun 07:03:04 PM 42.4814 -82.9706 81° East 553 636 41,000 667 Climbing Cleveland Center
Sun 07:04:04 PM 42.5061 -82.7631 81° East 558 642 41,000  Level Cleveland Center
Sun 07:05:04 PM 42.5289 -82.5469 82° East 558 642 41,000  Level Cleveland Center
Sun 07:06:04 PM 42.5531 -82.3336 81° East 569 655 41,000  Level Cleveland Center
Sun 07:07:04 PM 42.5769 -82.1197 81° East 569 655 41,000  Level Cleveland Center
Sun 07:08:04 PM 42.6006 -81.9061 81° East 574 661 41,000  Level Cleveland Center
Sun 07:09:04 PM 42.6258 -81.6725 82° East 574 661 41,000  Level Cleveland Center
Sun 07:10:04 PM 42.6486 -81.4556 82° East 584 672 41,000  Level Cleveland Center
Sun 07:11:04 PM 42.6708 -81.2383 82° East 579 666 41,000  Level Cleveland Center
Sun 07:12:04 PM 42.6928 -81.0181 82° East 579 666 41,000  Level Cleveland Center
Sun 07:13:04 PM 42.7164 -80.8008 82° East 579 666 41,000  Level Cleveland Center
Sun 07:14:04 PM 42.7375 -80.5775 83° East 586 674 41,000  Level Cleveland Center
Sun 07:15:04 PM 42.7622 -80.3569 81° East 586 674 41,000  Level Cleveland Center
Sun 07:16:04 PM 42.7867 -80.1361 81° East 592 681 41,000  Level Cleveland Center
Sun 07:17:04 PM 42.8125 -79.9153 81° East 597 687 41,000 -150 Level Cleveland Center
Sun 07:18:04 PM 42.8339 -79.6914 83° East 597 687 40,700 -600 Descending Cleveland Center
Sun 07:19:04 PM 42.8550 -79.4703 83° East 597 687 39,800 -850 Descending Cleveland Center
Sun 07:20:04 PM 42.8778 -79.2517 82° East 597 687 39,000 -400 Descending Cleveland Center
Sun 07:21:04 PM 42.8958 -79.0275 84° East 597 687 39,000  Level Cleveland Center
Sun 07:22:04 PM 42.9175 -78.8000 83° East 597 687 39,000  Level Cleveland Center
Sun 07:23:04 PM 42.9367 -78.5725 83° East 597 687 39,000  Level Cleveland Center
Sun 07:24:04 PM 42.9597 -78.3478 82° East 597 687 39,000  Level Cleveland Center
Sun 07:25:04 PM 42.9842 -78.1197 82° East 597 687 39,000  Level Cleveland Center
Sun 07:26:04 PM 43.0064 -77.8947 82° East 597 687 39,000  Level Cleveland Center
Sun 07:27:04 PM 43.0264 -77.6892 82° East 602 693 39,000  Level Cleveland Center
Sun 07:28:04 PM 43.0497 -77.4608 82° East 602 693 39,000  Level Cleveland Center
Sun 07:29:04 PM 43.0683 -77.2325 84° East 602 693 39,000  Level Cleveland Center
Sun 07:31:31 PM 43.1483 -76.6981 78° East 600 690 39,000  Level Boston Center
Sun 07:32:31 PM 43.2061 -76.4286 74° East 605 696 39,000  Level Boston Center
Sun 07:33:31 PM 43.2511 -76.2033 75° East 605 696 39,000 -300 Level Boston Center
Sun 07:34:31 PM 43.2981 -75.9808 74° East 605 696 38,400 -1,000 Descending Boston Center
Sun 07:35:31 PM 43.3442 -75.7636 74° East 600 690 37,000 -2,000 Descending Boston Center
Sun 07:36:31 PM 43.3711 -75.5422 80° East 600 690 34,400 -2,400 Descending Boston Center
Sun 07:37:31 PM 43.3906 -75.3544 82° East 595 685 32,200 -2,750 Descending Boston Center
Sun 07:38:31 PM 43.4142 -75.0725 83° East 617 710 28,900 -2,700 Descending Boston Center
Sun 07:39:31 PM 43.4164 -74.8811 89° East 597 687 26,800 -1,950 Descending Boston Center
Sun 07:40:31 PM 43.4017 -74.6864 96° East 547 629 25,000 -900 Descending Boston Center
Sun 07:41:31 PM 43.4053 -74.4892 88° East 522 601 25,000  Level Boston Center
Sun 07:42:31 PM 43.4233 -74.2897 83° East 516 594 25,000 -45 Level Boston Center
Sun 07:43:43 PM 43.4453 -74.0872 81° East 521 600 24,900 -409 Descending Boston Center
Sun 07:44:43 PM 43.4692 -73.8533 82° East 521 600 24,100 -450 Descending Boston Center
Sun 07:45:43 PM 43.4900 -73.6619 81° East 516 594 24,000 -650 Descending Boston Center
Sun 07:46:43 PM 43.5086 -73.4678 82° East 516 594 22,800 -1,900 Descending Boston Center
Sun 07:47:43 PM 43.5289 -73.2878 81° East 505 581 20,200 -3,400 Descending Boston Center
Sun 07:48:43 PM 43.5467 -73.1189 82° East 469 540 16,000 -4,400 Descending Boston Center
Sun 07:49:43 PM 43.5664 -72.9500 81° East 437 503 11,400 -3,850 Descending Boston Center
Sun 07:50:43 PM 43.5772 -72.8183 83° East 384 442 8,300 -2,300 Descending Boston Center
Sun 07:51:43 PM 43.5881 -72.7125 82° East 323 372 6,800 -900 Descending Boston Center
Sun 07:52:43 PM 43.5986 -72.6064 82° East 284 327 6,500 -950 Descending Boston Center
Sun 07:53:43 PM 43.6133 -72.5031 79° East 274 315 4,900 -1,650 Descending Boston Center
Sun 07:54:43 PM 43.6444 -72.4172 63° Northeast 254 292 3,200 -1,000 Descending Boston Center
Sun 07:55:43 PM 43.6611 -72.3311 75° East 254 292 2,900 2,400 Descending Boston Center
Sun 07:56:43 PM 43.6819 -72.2392 73° East 254 292 8,000 5,100 Climbing Boston Center

Login

Don't have an account? Register now (free) for customized features, flight alerts, and more!